Time;durP1;ratioP1;P1;durP2;ratioP2;P2;SDS_P1;SDS_P2;PMS_P1;PMS_P2;Temp;Humidity;BMP_temperature;BMP_pressure;BME280_temperature;BME280_humidity;BME280_pressure;Samples;Min_cycle;Max_cycle;Signal;HPM_P1;HPM_P2
2022/04/10 00:01:29;;;;;;;;;;;14.50;78.00;;;;;;5228395;28;20381;-42
2022/04/10 00:04:00;;;;;;;;;;;14.50;78.00;;;;;;5228261;28;19921;-40
2022/04/10 00:06:31;;;;;;;;;;;14.50;77.90;;;;;;5228197;28;19921;-42
2022/04/10 00:09:02;;;;;;;;;;;14.50;77.80;;;;;;5226430;28;20354;-42
2022/04/10 00:11:33;;;;;;;;;;;14.60;77.90;;;;;;5228194;28;19964;-41
2022/04/10 00:14:04;;;;;;;;;;;14.60;77.80;;;;;;5227994;28;19924;-41
2022/04/10 00:16:34;;;;;;;;;;;14.60;78.30;;;;;;5227998;28;19920;-41
2022/04/10 00:19:05;;;;;;;;;;;14.60;77.90;;;;;;5228854;28;19928;-42
2022/04/10 00:21:36;;;;;;;;;;;14.60;77.80;;;;;;5228462;28;19928;-42
2022/04/10 00:24:07;;;;;;;;;;;14.60;77.80;;;;;;5227969;28;19925;-40
2022/04/10 00:26:38;;;;;;;;;;;14.60;77.80;;;;;;5228820;28;20002;-40
2022/04/10 00:29:10;;;;;;;;;;;14.60;77.90;;;;;;5231909;28;20377;-42
2022/04/10 00:31:40;;;;;;;;;;;14.60;77.90;;;;;;5231975;28;19920;-41
2022/04/10 00:34:12;;;;;;;;;;;14.60;77.90;;;;;;5232216;28;20361;-42
2022/04/10 00:36:42;;;;;;;;;;;14.60;78.00;;;;;;5231823;28;19921;-40
2022/04/10 00:39:13;;;;;;;;;;;14.60;78.10;;;;;;5231836;28;19921;-43
2022/04/10 00:41:44;;;;;;;;;;;14.60;78.10;;;;;;5231500;28;19920;-41
2022/04/10 00:44:15;;;;;;;;;;;14.60;78.20;;;;;;5232326;28;19924;-42
2022/04/10 00:46:49;;;;;;;;;;;14.50;78.20;;;;;;5231518;28;19932;-41
2022/04/10 00:49:20;;;;;;;;;;;14.60;78.40;;;;;;5231565;28;20429;-41
2022/04/10 00:51:52;;;;;;;;;;;14.60;78.40;;;;;;5231485;28;20008;-41
2022/04/10 00:54:26;;;;;;;;;;;14.60;78.40;;;;;;5230216;28;19924;-42
2022/04/10 00:56:58;;;;;;;;;;;14.60;78.50;;;;;;5231148;28;19933;-41
2022/04/10 00:59:29;;;;;;;;;;;14.60;78.50;;;;;;5231496;28;19976;-41
2022/04/10 01:02:00;;;;;;;;;;;14.60;78.50;;;;;;5231752;28;19925;-40
2022/04/10 01:04:31;;;;;;;;;;;14.50;78.70;;;;;;5231343;28;19921;-43
2022/04/10 01:07:02;;;;;;;;;;;14.60;78.70;;;;;;5231000;28;19932;-43
2022/04/10 01:09:33;;;;;;;;;;;14.60;78.60;;;;;;5231082;28;19943;-43
2022/04/10 01:12:04;;;;;;;;;;;14.60;78.60;;;;;;5231249;28;19920;-43
2022/04/10 01:14:38;;;;;;;;;;;14.60;78.60;;;;;;5231153;28;20034;-41
2022/04/10 01:17:09;;;;;;;;;;;14.50;78.50;;;;;;5230943;28;20250;-41
2022/04/10 01:19:41;;;;;;;;;;;14.50;78.40;;;;;;5230828;28;20281;-43
2022/04/10 01:22:30;;;;;;;;;;;14.50;78.40;;;;;;5230935;28;19979;-43
2022/04/10 01:25:05;;;;;;;;;;;14.50;78.40;;;;;;5230960;28;20023;-41
2022/04/10 01:27:37;;;;;;;;;;;14.50;78.30;;;;;;5230490;28;19964;-41
2022/04/10 01:30:09;;;;;;;;;;;14.50;78.30;;;;;;5230718;28;19921;-41
2022/04/10 01:32:39;;;;;;;;;;;14.60;78.30;;;;;;5230578;28;19943;-43
2022/04/10 01:35:10;;;;;;;;;;;14.50;78.30;;;;;;5229476;28;19921;-40
2022/04/10 01:37:41;;;;;;;;;;;14.50;78.20;;;;;;5229074;28;19921;-42
2022/04/10 01:40:12;;;;;;;;;;;14.50;78.30;;;;;;5229125;28;19972;-42
2022/04/10 01:42:43;;;;;;;;;;;14.50;78.30;;;;;;5230577;28;19995;-41
2022/04/10 01:45:14;;;;;;;;;;;14.60;78.30;;;;;;5230409;28;20369;-40
2022/04/10 01:47:45;;;;;;;;;;;14.50;78.40;;;;;;5230521;28;19920;-40
2022/04/10 01:50:16;;;;;;;;;;;14.50;78.50;;;;;;5229233;28;19927;-41
2022/04/10 01:52:47;;;;;;;;;;;14.50;78.60;;;;;;5230292;28;19929;-41
2022/04/10 01:55:18;;;;;;;;;;;14.50;78.60;;;;;;5229151;28;19921;-43
2022/04/10 01:57:49;;;;;;;;;;;14.50;78.60;;;;;;5230456;28;19928;-43
2022/04/10 02:00:20;;;;;;;;;;;14.50;78.40;;;;;;5230252;28;20281;-43
2022/04/10 02:02:51;;;;;;;;;;;14.50;78.40;;;;;;5230175;28;19920;-41
2022/04/10 02:05:22;;;;;;;;;;;14.50;78.30;;;;;;5230107;28;19979;-43
2022/04/10 02:07:53;;;;;;;;;;;14.50;78.30;;;;;;5230076;28;19956;-42
2022/04/10 02:10:23;;;;;;;;;;;14.50;78.30;;;;;;5229980;28;19920;-42
2022/04/10 02:12:54;;;;;;;;;;;14.50;78.20;;;;;;5229940;28;20405;-41
2022/04/10 02:15:26;;;;;;;;;;;14.50;78.10;;;;;;5211460;28;20368;-41
2022/04/10 02:17:56;;;;;;;;;;;14.50;78.10;;;;;;5229710;28;19921;-42
2022/04/10 02:20:28;;;;;;;;;;;14.50;78.20;;;;;;5228957;28;19920;-41
2022/04/10 02:22:59;;;;;;;;;;;14.50;78.10;;;;;;5229592;28;19927;-43
2022/04/10 02:25:29;;;;;;;;;;;14.50;78.00;;;;;;5229661;28;19943;-41
2022/04/10 02:28:00;;;;;;;;;;;14.50;78.00;;;;;;5229457;28;19920;-42
2022/04/10 02:30:31;;;;;;;;;;;14.50;78.00;;;;;;5229625;28;19921;-42
2022/04/10 02:33:02;;;;;;;;;;;14.50;77.90;;;;;;5229549;28;19921;-42
2022/04/10 02:35:33;;;;;;;;;;;14.50;77.80;;;;;;5229306;28;19927;-42
2022/04/10 02:38:04;;;;;;;;;;;14.50;77.90;;;;;;5229486;28;20389;-41
2022/04/10 02:40:35;;;;;;;;;;;14.50;77.80;;;;;;5228150;28;19924;-43
2022/04/10 02:43:08;;;;;;;;;;;14.50;77.80;;;;;;5229785;28;20366;-42
2022/04/10 02:45:40;;;;;;;;;;;14.50;77.80;;;;;;5229338;28;19967;-42
2022/04/10 02:48:10;;;;;;;;;;;14.50;77.70;;;;;;5227974;28;19947;-42
2022/04/10 02:50:41;;;;;;;;;;;14.60;77.60;;;;;;5228326;28;19951;-42
2022/04/10 02:53:12;;;;;;;;;;;14.50;77.60;;;;;;5229427;28;19986;-41
2022/04/10 02:55:43;;;;;;;;;;;14.50;77.60;;;;;;5229507;28;20286;-40
2022/04/10 02:58:14;;;;;;;;;;;14.50;77.70;;;;;;5229120;28;19966;-41
2022/04/10 03:00:45;;;;;;;;;;;14.60;77.70;;;;;;5228109;28;19920;-42
2022/04/10 03:03:16;;;;;;;;;;;14.50;77.70;;;;;;5228945;28;20436;-42
2022/04/10 03:05:47;;;;;;;;;;;14.50;77.80;;;;;;5229428;28;19964;-41
2022/04/10 03:08:19;;;;;;;;;;;14.50;77.80;;;;;;5228769;28;20013;-40
2022/04/10 03:10:50;;;;;;;;;;;14.50;77.90;;;;;;5229130;28;20341;-41
2022/04/10 03:13:20;;;;;;;;;;;14.50;77.90;;;;;;5227698;28;19951;-41
2022/04/10 03:15:51;;;;;;;;;;;14.50;77.90;;;;;;5228630;28;19921;-41
2022/04/10 03:18:22;;;;;;;;;;;14.50;77.90;;;;;;5227651;28;19943;-40
2022/04/10 03:20:53;;;;;;;;;;;14.60;77.90;;;;;;5228570;28;19921;-40
2022/04/10 03:23:24;;;;;;;;;;;14.50;78.20;;;;;;5228685;28;20404;-40
2022/04/10 03:25:55;;;;;;;;;;;14.50;78.60;;;;;;5228480;28;19944;-43
2022/04/10 03:28:26;;;;;;;;;;;14.50;78.00;;;;;;5228703;28;19921;-40
2022/04/10 03:31:00;;;;;;;;;;;14.60;78.10;;;;;;5227759;28;20288;-41
2022/04/10 03:33:31;;;;;;;;;;;14.60;78.10;;;;;;5229148;28;19928;-41
2022/04/10 03:36:02;;;;;;;;;;;14.50;78.10;;;;;;5228544;28;19921;-40
2022/04/10 03:38:32;;;;;;;;;;;14.50;78.40;;;;;;5228559;28;19969;-43
2022/04/10 03:41:04;;;;;;;;;;;14.50;78.30;;;;;;5228498;28;19927;-41
2022/04/10 03:43:35;;;;;;;;;;;14.50;78.20;;;;;;5227387;28;19920;-41
2022/04/10 03:46:05;;;;;;;;;;;14.50;78.70;;;;;;5228474;28;19971;-42
2022/04/10 03:48:36;;;;;;;;;;;14.50;78.30;;;;;;5228305;28;19956;-41
2022/04/10 03:51:07;;;;;;;;;;;14.50;78.10;;;;;;5228270;28;20011;-42
2022/04/10 03:53:38;;;;;;;;;;;14.60;78.00;;;;;;5226743;28;20003;-41
2022/04/10 03:56:09;;;;;;;;;;;14.50;78.20;;;;;;5228371;28;19920;-42
2022/04/10 03:58:40;;;;;;;;;;;14.50;77.90;;;;;;5228389;28;19927;-41
2022/04/10 04:01:11;;;;;;;;;;;14.60;77.90;;;;;;5230261;28;19921;-41
2022/04/10 04:03:42;;;;;;;;;;;14.60;77.90;;;;;;5232448;28;20015;-40
2022/04/10 04:06:13;;;;;;;;;;;14.60;77.70;;;;;;5232131;28;20365;-41
2022/04/10 04:08:44;;;;;;;;;;;14.50;77.80;;;;;;5232652;28;19920;-41
2022/04/10 04:11:15;;;;;;;;;;;14.60;77.90;;;;;;5232364;28;20369;-41
2022/04/10 04:13:46;;;;;;;;;;;14.50;77.70;;;;;;5232347;28;19960;-41
2022/04/10 04:16:17;;;;;;;;;;;14.50;77.60;;;;;;5232151;28;19978;-41
2022/04/10 04:18:48;;;;;;;;;;;14.50;77.80;;;;;;5232233;28;19928;-41
2022/04/10 04:21:19;;;;;;;;;;;14.50;77.90;;;;;;5232168;28;19928;-41
2022/04/10 04:23:50;;;;;;;;;;;14.60;77.90;;;;;;5232111;28;20354;-42
2022/04/10 04:26:21;;;;;;;;;;;14.60;78.30;;;;;;5228966;28;19921;-41
2022/04/10 04:28:52;;;;;;;;;;;14.60;77.80;;;;;;5229647;28;19967;-45
2022/04/10 04:31:23;;;;;;;;;;;14.60;77.90;;;;;;5229569;28;19921;-41
2022/04/10 04:33:54;;;;;;;;;;;14.50;78.00;;;;;;5217688;28;19932;-42
2022/04/10 04:36:25;;;;;;;;;;;14.60;77.90;;;;;;5227692;28;19924;-42
2022/04/10 04:38:57;;;;;;;;;;;14.50;78.10;;;;;;5226187;28;19932;-44
2022/04/10 04:41:28;;;;;;;;;;;14.50;78.30;;;;;;5218900;28;19924;-42
2022/04/10 04:43:58;;;;;;;;;;;14.50;78.20;;;;;;5229448;28;19936;-43
2022/04/10 04:46:29;;;;;;;;;;;14.50;78.20;;;;;;5229329;28;19959;-41
2022/04/10 04:49:00;;;;;;;;;;;14.60;78.10;;;;;;5229102;28;19928;-41
2022/04/10 04:51:36;;;;;;;;;;;14.60;78.20;;;;;;5229244;28;19999;-43
2022/04/10 04:54:09;;;;;;;;;;;14.60;78.10;;;;;;5228037;28;20015;-41
2022/04/10 04:56:41;;;;;;;;;;;14.60;78.20;;;;;;5228980;28;19924;-41
2022/04/10 04:59:15;;;;;;;;;;;14.60;78.30;;;;;;5228783;28;19978;-41
2022/04/10 05:01:46;;;;;;;;;;;14.60;78.30;;;;;;5229118;28;20010;-43
2022/04/10 05:04:17;;;;;;;;;;;14.50;78.40;;;;;;5223745;28;19956;-41
2022/04/10 05:06:48;;;;;;;;;;;14.50;78.60;;;;;;5229243;28;19921;-44
2022/04/10 05:09:19;;;;;;;;;;;14.50;78.70;;;;;;5228859;28;19921;-42
2022/04/10 05:11:50;;;;;;;;;;;14.50;78.90;;;;;;5228263;28;19920;-42
2022/04/10 05:14:21;;;;;;;;;;;14.50;78.90;;;;;;5228393;28;19932;-42
2022/04/10 05:16:52;;;;;;;;;;;14.50;79.00;;;;;;5228497;28;19986;-47
2022/04/10 05:19:23;;;;;;;;;;;14.50;79.10;;;;;;5223772;28;19968;-43
2022/04/10 05:21:54;;;;;;;;;;;14.60;79.00;;;;;;5228813;28;19967;-44
2022/04/10 05:24:25;;;;;;;;;;;14.60;79.00;;;;;;5228458;28;19960;-45
2022/04/10 05:26:57;;;;;;;;;;;14.60;79.00;;;;;;5230577;28;19998;-42
2022/04/10 05:29:28;;;;;;;;;;;14.50;78.90;;;;;;5230404;28;20380;-41
2022/04/10 05:31:58;;;;;;;;;;;14.60;78.70;;;;;;5230833;28;20441;-42
2022/04/10 05:34:29;;;;;;;;;;;14.60;78.80;;;;;;5230504;28;20031;-41
2022/04/10 05:37:00;;;;;;;;;;;14.60;78.80;;;;;;5230681;28;19921;-42
2022/04/10 05:39:31;;;;;;;;;;;14.60;78.90;;;;;;5230549;28;19990;-44
2022/04/10 05:42:02;;;;;;;;;;;14.60;79.00;;;;;;5230590;28;19921;-44
2022/04/10 05:44:34;;;;;;;;;;;14.60;78.80;;;;;;5230430;28;19927;-43
2022/04/10 05:47:06;;;;;;;;;;;14.60;78.80;;;;;;5223742;28;19921;-41
2022/04/10 05:49:36;;;;;;;;;;;14.60;78.80;;;;;;5225584;28;19979;-40
2022/04/10 05:52:08;;;;;;;;;;;14.70;78.50;;;;;;5208118;28;19975;-39
2022/04/10 05:54:38;;;;;;;;;;;14.70;78.30;;;;;;5209465;28;19921;-42
2022/04/10 05:57:09;;;;;;;;;;;14.80;78.00;;;;;;5210304;28;19943;-42
2022/04/10 05:59:41;;;;;;;;;;;14.90;78.20;;;;;;5209968;28;19921;-42
2022/04/10 06:02:14;;;;;;;;;;;15.10;77.80;;;;;;5209543;28;20239;-43
2022/04/10 06:04:45;;;;;;;5.23;2.00;;;15.50;77.00;;;;;;5208854;28;19928;-42
2022/04/10 06:07:16;;;;;;;3.07;1.50;;;15.70;76.60;;;;;;5208977;28;20478;-42
2022/04/10 06:09:47;;;;;;;3.77;1.90;;;15.90;76.10;;;;;;5208011;28;20045;-42
2022/04/10 06:12:18;;;;;;;4.07;1.60;;;16.00;75.70;;;;;;5209247;28;20080;-42
2022/04/10 06:14:48;;;;;;;3.85;1.90;;;16.10;75.50;;;;;;5224243;28;20076;-43
2022/04/10 06:17:20;;;;;;;;;;;16.20;75.40;;;;;;5209128;28;20050;-43
2022/04/10 06:19:50;;;;;;;;;;;16.30;75.10;;;;;;5209464;28;19967;-44
2022/04/10 06:22:23;;;;;;;;;;;16.30;75.20;;;;;;5209219;28;19925;-46
2022/04/10 06:24:54;;;;;;;;;;;16.30;75.40;;;;;;5209100;28;19928;-40
2022/04/10 06:27:25;;;;;;;;;;;16.30;75.10;;;;;;5207671;28;19928;-40
2022/04/10 06:29:55;;;;;;;;;;;16.40;74.80;;;;;;5209151;28;19920;-39
2022/04/10 06:32:30;;;;;;;;;;;16.50;74.50;;;;;;5208898;28;19925;-44
2022/04/10 06:35:02;;;;;;;;;;;16.60;74.20;;;;;;5207601;28;19928;-44
2022/04/10 06:37:35;;;;;;;;;;;16.80;73.90;;;;;;5208821;28;19928;-41
2022/04/10 06:40:06;;;;;;;;;;;16.90;73.70;;;;;;5208719;28;19921;-42
2022/04/10 06:42:38;;;;;;;;;;;16.90;73.60;;;;;;5208741;28;19925;-42
2022/04/10 06:45:09;;;;;;;;;;;17.00;73.90;;;;;;5208769;28;19927;-47
2022/04/10 06:47:40;;;;;;;;;;;16.90;74.50;;;;;;5208385;28;19957;-44
2022/04/10 06:50:12;;;;;;;;;;;16.60;74.50;;;;;;5208730;28;20349;-42
2022/04/10 06:52:43;;;;;;;4.28;1.83;;;16.20;75.30;;;;;;5208057;28;20008;-40
2022/04/10 06:55:15;;;;;;;3.80;1.80;;;16.00;75.80;;;;;;5208135;28;20041;-41
2022/04/10 06:57:46;;;;;;;;;;;16.00;77.50;;;;;;5208689;28;19921;-42
2022/04/10 07:00:17;;;;;;;;;;;16.40;75.10;;;;;;5208510;28;20362;-42
2022/04/10 07:02:48;;;;;;;;;;;16.60;80.50;;;;;;5208436;28;19950;-44
2022/04/10 07:05:19;;;;;;;3.15;1.88;;;16.70;74.10;;;;;;5206367;28;20414;-42
2022/04/10 07:07:50;;;;;;;4.57;2.38;;;16.20;74.80;;;;;;5207534;28;20049;-44
2022/04/10 07:10:22;;;;;;;4.35;1.80;;;16.00;75.50;;;;;;5207609;28;20049;-42
2022/04/10 07:12:53;;;;;;;3.10;1.90;;;15.70;75.70;;;;;;5207576;28;20049;-41
2022/04/10 07:15:24;;;;;;;3.50;1.60;;;15.60;75.70;;;;;;5207686;28;20391;-41
2022/04/10 07:17:56;;;;;;;4.27;1.90;;;15.40;75.70;;;;;;5207866;28;20057;-43
2022/04/10 07:20:27;;;;;;;3.07;1.67;;;15.40;75.60;;;;;;5207542;28;20049;-43
2022/04/10 07:25:48;;;;;;;3.40;1.70;;;15.30;75.50;;;;;;5207558;28;20049;-41
2022/04/10 07:28:20;;;;;;;3.60;1.80;;;15.30;75.80;;;;;;5207220;28;20061;-42
2022/04/10 07:30:51;;;;;;;3.33;1.70;;;15.30;75.50;;;;;;5207544;28;20045;-42
2022/04/10 07:33:22;;;;;;;4.57;1.90;;;15.20;75.40;;;;;;5207683;28;20057;-41
2022/04/10 07:35:53;;;;;;;3.57;1.73;;;15.20;75.40;;;;;;5206803;28;20054;-40
2022/04/10 07:38:24;;;;;;;3.40;1.77;;;15.20;75.40;;;;;;5207339;28;20407;-41
2022/04/10 07:40:55;;;;;;;3.60;1.97;;;15.20;75.20;;;;;;5207417;28;20049;-43
2022/04/10 07:43:26;;;;;;;3.63;1.60;;;15.20;75.30;;;;;;5205920;28;20081;-42
2022/04/10 07:48:47;;;;;;;5.30;1.70;;;15.10;75.50;;;;;;5207545;28;20045;-43
2022/04/10 07:51:18;;;;;;;4.17;1.80;;;15.00;75.50;;;;;;5207149;28;20395;-41
2022/04/10 07:53:49;;;;;;;5.63;2.20;;;15.00;75.50;;;;;;5207321;28;20042;-41
2022/04/10 07:56:21;;;;;;;3.63;1.57;;;15.00;75.20;;;;;;5206016;28;20053;-41
2022/04/10 07:58:52;;;;;;;;;;;15.00;74.80;;;;;;5207457;28;20545;-42
2022/04/10 08:01:23;;;;;;;4.33;2.10;;;14.90;75.20;;;;;;5207080;28;19925;-41
2022/04/10 08:03:54;;;;;;;5.23;2.37;;;14.90;76.10;;;;;;5206803;28;20046;-41
2022/04/10 08:06:25;;;;;;;;;;;14.90;74.70;;;;;;5207711;28;20060;-42
2022/04/10 08:08:56;;;;;;;;;;;14.90;74.60;;;;;;5207455;28;19921;-40
2022/04/10 08:11:27;;;;;;;;;;;14.90;74.70;;;;;;5207619;28;19929;-42
2022/04/10 08:13:58;;;;;;;;;;;14.80;75.00;;;;;;5207542;28;20002;-40
2022/04/10 08:16:29;;;;;;;;;;;14.90;74.60;;;;;;5207490;28;19964;-41
2022/04/10 08:19:00;;;;;;;;;;;14.90;74.10;;;;;;5207804;28;19921;-40
2022/04/10 08:21:31;;;;;;;;;;;14.90;73.80;;;;;;5207461;28;20043;-43
2022/04/10 08:24:02;;;;;;;;;;;14.90;73.80;;;;;;5206249;28;20448;-41
2022/04/10 08:26:34;;;;;;;;;;;14.80;73.90;;;;;;5207205;28;19921;-41
2022/04/10 08:29:05;;;;;;;;;;;14.90;73.70;;;;;;5207383;28;20383;-43
2022/04/10 08:31:36;;;;;;;;;;;14.90;73.40;;;;;;5207422;28;19966;-41
2022/04/10 08:34:08;;;;;;;;;;;14.80;73.60;;;;;;5207384;28;19925;-43
2022/04/10 08:36:39;;;;;;;;;;;14.80;74.20;;;;;;5206046;28;20273;-44
2022/04/10 08:39:11;;;;;;;;;;;14.80;74.20;;;;;;5207408;28;19928;-43
2022/04/10 08:41:41;;;;;;;;;;;14.80;74.20;;;;;;5207289;28;20354;-41
2022/04/10 08:44:12;;;;;;;;;;;14.70;74.40;;;;;;5207104;28;19967;-41
2022/04/10 08:46:45;;;;;;;;;;;14.70;74.40;;;;;;5207300;28;20366;-42
2022/04/10 08:49:16;;;;;;;;;;;14.80;74.60;;;;;;5210274;28;19927;-42
2022/04/10 08:51:47;;;;;;;;;;;14.80;74.60;;;;;;5210902;28;19921;-41
2022/04/10 08:54:20;;;;;;;;;;;14.80;74.90;;;;;;5210603;28;20397;-41
2022/04/10 08:56:51;;;;;;;;;;;14.70;74.80;;;;;;5211196;28;19921;-41
2022/04/10 08:59:22;;;;;;;;;;;14.70;74.50;;;;;;5210879;28;19921;-41
2022/04/10 09:01:54;;;;;;;;;;;14.70;73.90;;;;;;5210702;28;19921;-41
2022/04/10 09:04:25;;;;;;;;;;;14.80;73.70;;;;;;5210722;28;19921;-42
2022/04/10 09:06:59;;;;;;;;;;;14.80;73.50;;;;;;5210634;28;19921;-41
2022/04/10 09:09:31;;;;;;;;;;;14.70;73.50;;;;;;5210410;28;19921;-41
2022/04/10 09:12:02;;;;;;;;;;;14.70;73.70;;;;;;5210654;28;20362;-41
2022/04/10 09:14:40;;;;;;;;;;;14.70;73.60;;;;;;5210442;28;20362;-41
2022/04/10 09:17:21;;;;;;;;;;;14.70;73.40;;;;;;5210399;28;20373;-41
2022/04/10 09:19:52;;;;;;;;;;;14.70;72.90;;;;;;5210490;28;19921;-41
2022/04/10 09:22:30;;;;;;;;;;;14.80;72.70;;;;;;5210509;28;20424;-41
2022/04/10 09:25:14;;;;;;;;;;;14.80;72.30;;;;;;5210134;28;19920;-42
2022/04/10 09:27:45;;;;;;;;;;;14.80;72.60;;;;;;5210374;28;19925;-42
2022/04/10 09:30:20;;;;;;;;;;;14.70;72.40;;;;;;5209072;28;19921;-43
2022/04/10 09:32:51;;;;;;;;;;;14.80;72.20;;;;;;5210081;28;19921;-42
2022/04/10 09:35:22;;;;;;;;;;;14.70;72.10;;;;;;5210041;28;20278;-42
2022/04/10 09:37:54;;;;;;;;;;;14.70;72.20;;;;;;5210035;28;19921;-43
2022/04/10 09:40:26;;;;;;;;;;;14.80;72.30;;;;;;5210090;28;19928;-41
2022/04/10 09:43:04;;;;;;;;;;;14.70;72.30;;;;;;5208965;28;19921;-41
2022/04/10 09:45:43;;;;;;;;;;;14.70;72.40;;;;;;5209942;28;19947;-42
2022/04/10 09:48:24;;;;;;;;;;;14.70;72.50;;;;;;5209953;28;19921;-41
2022/04/10 09:50:58;;;;;;;;;;;14.70;72.30;;;;;;5210001;28;19921;-43
2022/04/10 09:53:29;;;;;;;;;;;14.80;72.20;;;;;;5209806;28;19921;-42
2022/04/10 09:56:02;;;;;;;;;;;14.90;72.40;;;;;;5208846;28;20398;-41
2022/04/10 09:58:33;;;;;;;;;;;14.80;72.60;;;;;;5209328;28;19920;-42
2022/04/10 10:01:06;;;;;;;;;;;14.80;72.80;;;;;;5208949;28;19921;-41
2022/04/10 10:03:37;;;;;;;;;;;14.70;73.20;;;;;;5209451;28;19925;-41
2022/04/10 10:06:09;;;;;;;;;;;14.80;72.60;;;;;;5209552;28;20377;-41
2022/04/10 10:08:40;;;;;;;;;;;14.90;72.70;;;;;;5208241;28;19925;-42
2022/04/10 10:11:12;;;;;;;;;;;14.70;72.10;;;;;;5208126;28;19921;-43
2022/04/10 10:13:43;;;;;;;;;;;14.70;72.60;;;;;;5209380;28;19921;-41
2022/04/10 10:16:14;;;;;;;;;;;14.60;72.70;;;;;;5209332;28;20358;-41
2022/04/10 10:18:45;;;;;;;;;;;14.70;72.50;;;;;;5209303;28;19921;-41
2022/04/10 10:21:16;;;;;;;;;;;14.60;72.20;;;;;;5209013;28;19936;-42
2022/04/10 10:23:48;;;;;;;;;;;14.60;71.90;;;;;;5209966;28;19925;-41
2022/04/10 10:26:34;;;;;;;;;;;14.60;72.20;;;;;;5207768;28;20005;-42
2022/04/10 10:29:24;;;;;;;;;;;14.60;72.30;;;;;;5207527;28;19927;-41
2022/04/10 10:31:57;;;;;;;;;;;14.70;72.30;;;;;;5209541;28;20256;-44
2022/04/10 10:34:28;;;;;;;;;;;14.70;72.20;;;;;;5208681;28;19928;-41
2022/04/10 10:37:03;;;;;;;;;;;14.60;72.50;;;;;;5208958;28;19921;-43
2022/04/10 10:39:44;;;;;;;;;;;14.70;72.60;;;;;;5208916;28;20394;-43
2022/04/10 10:42:15;;;;;;;;;;;14.60;72.50;;;;;;5208890;28;19921;-41
2022/04/10 10:44:49;;;;;;;;;;;14.60;72.50;;;;;;5208842;28;20313;-41
2022/04/10 10:47:22;;;;;;;;;;;14.60;72.40;;;;;;5208832;28;19959;-42
2022/04/10 10:49:53;;;;;;;7.25;5.85;;;14.50;72.10;;;;;;5207406;28;19921;-41
2022/04/10 10:52:25;;;;;;;5.77;4.10;;;14.50;72.00;;;;;;5206834;28;20053;-41
2022/04/10 10:54:57;;;;;;;5.97;2.67;;;14.50;72.00;;;;;;5206658;28;20045;-43
2022/04/10 10:57:42;;;;;;;6.22;2.90;;;14.50;71.90;;;;;;5208055;28;20041;-42
2022/04/10 11:00:22;;;;;;;7.27;2.77;;;14.50;71.50;;;;;;5207863;28;20045;-41
2022/04/10 11:02:54;;;;;;;5.47;3.30;;;14.50;71.60;;;;;;5206653;28;20054;-41
2022/04/10 11:05:25;;;;;;;8.63;3.43;;;14.50;71.90;;;;;;5207955;28;20049;-43
2022/04/10 11:08:08;;;;;;;4.87;3.70;;;14.50;72.00;;;;;;5207903;28;20045;-40
2022/04/10 11:10:52;;;;;;;4.95;4.00;;;14.40;71.90;;;;;;5207165;28;20065;-41
2022/04/10 11:13:23;;;;;;;3.50;2.60;;;14.50;71.80;;;;;;5206297;28;20053;-41
2022/04/10 11:15:55;;;;;;;5.23;2.80;;;14.50;71.50;;;;;;5206630;28;20046;-41
2022/04/10 11:18:27;;;;;;;8.90;4.05;;;14.50;71.60;;;;;;5207425;28;20254;-44
2022/04/10 11:21:13;;;;;;;8.53;4.63;;;14.50;72.00;;;;;;5207651;28;20103;-40
2022/04/10 11:23:45;;;;;;;4.83;3.30;;;14.50;72.10;;;;;;5206539;28;20053;-42
2022/04/10 11:26:18;;;;;;;5.43;3.00;;;14.50;71.80;;;;;;5205631;28;20045;-41
2022/04/10 11:29:04;;;;;;;4.20;2.72;;;14.50;71.70;;;;;;5207185;28;20080;-44
2022/04/10 11:31:46;;;;;;;5.13;3.27;;;14.50;71.20;;;;;;5207518;28;20042;-41
2022/04/10 11:34:25;;;;;;;5.77;3.10;;;14.50;71.00;;;;;;5206880;28;20057;-41
2022/04/10 11:36:58;;;;;;;5.40;3.13;;;14.50;71.10;;;;;;5207280;28;20045;-42
2022/04/10 11:39:32;;;;;;;7.27;3.23;;;14.50;71.10;;;;;;5207615;28;20411;-41
2022/04/10 11:42:05;;;;;;;4.73;2.17;;;14.60;71.00;;;;;;5206299;28;20498;-43
2022/04/10 11:44:36;;;;;;;6.00;2.83;;;14.50;70.80;;;;;;5207424;28;20530;-41
2022/04/10 11:47:10;;;;;;;3.73;2.03;;;14.40;71.20;;;;;;5222056;28;20065;-41
2022/04/10 11:49:51;;;;;;;3.80;1.97;;;14.40;71.20;;;;;;5207355;28;20398;-43
2022/04/10 11:52:22;;;;;;;2.97;1.83;;;14.50;70.90;;;;;;5206176;28;20065;-41
2022/04/10 11:54:54;;;;;;;8.07;3.30;;;14.40;70.40;;;;;;5205984;28;20078;-42
2022/04/10 11:57:24;;;;;;;8.77;4.17;;;14.50;70.60;;;;;;5206019;28;20049;-41
2022/04/10 11:59:55;;;;;;;9.17;4.40;;;14.50;70.80;;;;;;5207090;28;20471;-42
2022/04/10 12:02:26;;;;;;;8.53;3.50;;;14.50;70.90;;;;;;5206068;28;20092;-42
2022/04/10 12:05:00;;;;;;;4.87;2.50;;;14.50;71.20;;;;;;5205884;28;20049;-41
2022/04/10 12:07:31;;;;;;;7.18;3.08;;;14.50;71.20;;;;;;5188880;28;20060;-43
2022/04/10 12:10:08;;;;;;;7.13;3.37;;;14.50;71.30;;;;;;5206176;28;20049;-42
2022/04/10 12:12:42;;;;;;;5.43;2.78;;;14.60;71.60;;;;;;5206945;28;20046;-41
2022/04/10 12:15:17;;;;;;;6.30;2.90;;;14.60;71.90;;;;;;5206059;28;20434;-42
2022/04/10 12:17:48;;;;;;;8.87;4.23;;;14.60;71.70;;;;;;5206912;28;20045;-43
2022/04/10 12:20:22;;;;;;;8.37;4.00;;;14.60;71.50;;;;;;5206868;28;20533;-41
2022/04/10 12:22:53;;;;;;;7.43;4.03;;;14.60;71.50;;;;;;5210063;28;20586;-41
2022/04/10 12:25:24;;;;;;;8.03;3.73;;;14.50;71.90;;;;;;5210867;28;20046;-41
2022/04/10 12:27:55;;;;;;;5.60;3.00;;;14.80;74.90;;;;;;5210862;28;20083;-42
2022/04/10 12:30:28;;;;;;;4.93;2.30;;;14.80;71.70;;;;;;5210786;28;20057;-41
2022/04/10 12:32:59;;;;;;;5.30;2.90;;;14.80;71.60;;;;;;5229487;28;20537;-42
2022/04/10 12:35:36;;;;;;;6.33;2.57;;;14.70;72.40;;;;;;5215195;28;20084;-39
2022/04/10 12:38:10;;;;;;;5.33;2.50;;;14.70;72.70;;;;;;5236878;28;20041;-43
2022/04/10 12:40:41;;;;;;;;;;;14.60;72.40;;;;;;5230065;28;20514;-42
2022/04/10 12:43:12;;;;;;;;;;;14.60;72.40;;;;;;5212778;28;19927;-41
2022/04/10 12:45:44;;;;;;;;;;;14.60;72.00;;;;;;5229540;28;19921;-42
2022/04/10 12:48:20;;;;;;;;;;;14.60;71.30;;;;;;5212940;28;20471;-42
2022/04/10 12:51:17;;;;;;;;;;;14.70;70.70;;;;;;5229379;28;20293;-44
2022/04/10 12:53:49;;;;;;;;;;;14.70;70.00;;;;;;5226772;28;19920;-42
2022/04/10 12:56:21;;;;;;;;;;;14.70;69.50;;;;;;5229258;28;19921;-42
2022/04/10 12:58:53;;;;;;;;;;;14.70;69.10;;;;;;5229251;28;19920;-41
2022/04/10 13:01:28;;;;;;;;;;;14.80;69.00;;;;;;5229075;28;19925;-42
2022/04/10 13:04:00;;;;;;;;;;;14.70;69.60;;;;;;5229308;28;19928;-41
2022/04/10 13:06:47;;;;;;;;;;;14.70;69.90;;;;;;5213013;28;19966;-42
2022/04/10 13:09:18;;;;;;;;;;;14.70;70.20;;;;;;5212606;28;20011;-41
2022/04/10 13:11:52;;;;;;;;;;;14.60;70.90;;;;;;5212786;28;19955;-41
2022/04/10 13:14:26;;;;;;;;;;;14.60;71.00;;;;;;5228897;28;20294;-42
2022/04/10 13:17:02;;;;;;;;;;;14.60;70.40;;;;;;5241596;28;20524;-41
2022/04/10 13:19:36;;;;;;;;;;;14.60;70.60;;;;;;5233854;28;20024;-41
2022/04/10 13:22:07;;;;;;;;;;;14.70;70.80;;;;;;5227008;28;20381;-42
2022/04/10 13:24:38;;;;;;;;;;;14.70;71.10;;;;;;5227933;28;19921;-41
2022/04/10 13:27:11;;;;;;;;;;;14.70;71.60;;;;;;5218111;28;19921;-43
2022/04/10 13:29:42;;;;;;;;;;;14.70;71.70;;;;;;5216265;28;19928;-42
2022/04/10 13:32:13;;;;;;;;;;;14.80;71.80;;;;;;5213704;28;19921;-43
2022/04/10 13:34:44;;;;;;;;;;;14.90;71.80;;;;;;5222705;28;20374;-41
2022/04/10 13:37:16;;;;;;;;;;;14.90;71.60;;;;;;5215224;28;19928;-45
2022/04/10 13:39:46;;;;;;;;;;;15.00;71.60;;;;;;5228021;28;20547;-41
2022/04/10 13:42:18;;;;;;;;;;;15.00;71.80;;;;;;5222631;28;20373;-41
2022/04/10 13:44:49;;;;;;;;;;;15.00;71.70;;;;;;5227526;28;19927;-42
2022/04/10 13:47:20;;;;;;;;;;;15.00;71.20;;;;;;5239733;28;19924;-42
2022/04/10 13:49:52;;;;;;;;;;;15.00;70.40;;;;;;5224327;28;19920;-43
2022/04/10 13:52:24;;;;;;;;;;;14.90;69.50;;;;;;5225201;28;19924;-42
2022/04/10 13:54:54;;;;;;;;;;;14.90;69.00;;;;;;5224452;28;19967;-44
2022/04/10 13:57:26;;;;;;;;;;;15.00;68.70;;;;;;5207142;28;19920;-44
2022/04/10 13:59:57;;;;;;;;;;;15.00;69.20;;;;;;5224718;28;19924;-46
2022/04/10 14:02:28;;;;;;;;;;;15.00;70.70;;;;;;5228172;28;20317;-42
2022/04/10 14:04:59;;;;;;;;;;;15.00;71.90;;;;;;5227806;28;19921;-40
2022/04/10 14:07:34;;;;;;;;;;;14.90;72.60;;;;;;5227790;28;19921;-41
2022/04/10 14:10:05;;;;;;;;;;;14.90;73.40;;;;;;5227346;28;19921;-43
2022/04/10 14:12:37;;;;;;;;;;;14.90;73.00;;;;;;5224690;28;19921;-40
2022/04/10 14:15:26;;;;;;;;;;;14.90;72.20;;;;;;5221536;28;20002;-40
2022/04/10 14:17:58;;;;;;;;;;;15.00;71.20;;;;;;5237147;28;19921;-41
2022/04/10 14:20:32;;;;;;;;;;;15.10;70.80;;;;;;5224177;28;19920;-42
2022/04/10 14:23:03;;;;;;;;;;;15.30;70.60;;;;;;5214128;28;20007;-44
2022/04/10 14:25:34;;;;;;;;;;;15.40;70.10;;;;;;5225985;28;19924;-44
2022/04/10 14:28:06;;;;;;;4.90;3.27;;;15.60;69.60;;;;;;5226492;28;19924;-42
2022/04/10 14:30:38;;;;;;;6.37;3.70;;;15.60;69.20;;;;;;5226528;28;20429;-43